Aviation Digital Data Service (ADDS)

Output produced by METARs form (0747 UTC 04 September 2015)
found at http://aviationweather.gov/adds/metars/
 
KERI 040540Z 0406/0506 16004KT 4SM BR BKN120 
     TEMPO 0410/0413 2SM -SHRA BR BKN040 
     FM041500 06006KT P6SM SCT120 BKN250 
     FM041800 04010KT P6SM VCSH BKN040 
     FM050100 12005KT P6SM SCT040 BKN200